sensor_id;sensor_type;location;lat;lon;timestamp;P1;durP1;ratioP1;P2;durP2;ratioP2
6185;SDS011;3126;52.738;8.316;2024-02-04T00:04:47;13.15;;;6.10;;
6185;SDS011;3126;52.738;8.316;2024-02-04T00:09:48;16.92;;;6.95;;
6185;SDS011;3126;52.738;8.316;2024-02-04T00:14:49;13.25;;;6.35;;
6185;SDS011;3126;52.738;8.316;2024-02-04T00:19:50;15.93;;;7.10;;
6185;SDS011;3126;52.738;8.316;2024-02-04T00:24:51;12.85;;;5.97;;
6185;SDS011;3126;52.738;8.316;2024-02-04T00:29:52;18.83;;;6.85;;
6185;SDS011;3126;52.738;8.316;2024-02-04T00:34:53;15.45;;;7.18;;
6185;SDS011;3126;52.738;8.316;2024-02-04T00:39:54;14.73;;;7.30;;
6185;SDS011;3126;52.738;8.316;2024-02-04T00:44:55;11.95;;;7.18;;
6185;SDS011;3126;52.738;8.316;2024-02-04T00:49:56;14.85;;;8.15;;
6185;SDS011;3126;52.738;8.316;2024-02-04T00:54:57;16.33;;;8.50;;
6185;SDS011;3126;52.738;8.316;2024-02-04T00:59:58;18.63;;;8.43;;
6185;SDS011;3126;52.738;8.316;2024-02-04T01:04:59;16.42;;;8.15;;
6185;SDS011;3126;52.738;8.316;2024-02-04T01:10:00;16.30;;;9.02;;
6185;SDS011;3126;52.738;8.316;2024-02-04T01:15:01;16.48;;;8.65;;
6185;SDS011;3126;52.738;8.316;2024-02-04T01:20:05;13.88;;;7.80;;
6185;SDS011;3126;52.738;8.316;2024-02-04T01:25:06;14.20;;;7.03;;
6185;SDS011;3126;52.738;8.316;2024-02-04T01:30:07;18.98;;;7.68;;
6185;SDS011;3126;52.738;8.316;2024-02-04T01:35:08;15.00;;;7.55;;
6185;SDS011;3126;52.738;8.316;2024-02-04T01:40:09;12.13;;;5.97;;
6185;SDS011;3126;52.738;8.316;2024-02-04T01:45:11;11.50;;;6.03;;
6185;SDS011;3126;52.738;8.316;2024-02-04T01:50:11;9.48;;;5.00;;
6185;SDS011;3126;52.738;8.316;2024-02-04T01:55:13;11.82;;;5.28;;
6185;SDS011;3126;52.738;8.316;2024-02-04T02:00:14;12.57;;;5.22;;
6185;SDS011;3126;52.738;8.316;2024-02-04T02:05:15;13.02;;;4.43;;
6185;SDS011;3126;52.738;8.316;2024-02-04T02:10:15;10.85;;;4.78;;
6185;SDS011;3126;52.738;8.316;2024-02-04T02:15:18;11.50;;;4.32;;
6185;SDS011;3126;52.738;8.316;2024-02-04T02:25:27;12.75;;;4.45;;
6185;SDS011;3126;52.738;8.316;2024-02-04T02:30:28;11.60;;;4.55;;
6185;SDS011;3126;52.738;8.316;2024-02-04T02:35:29;11.20;;;4.68;;
6185;SDS011;3126;52.738;8.316;2024-02-04T02:40:30;14.18;;;4.25;;
6185;SDS011;3126;52.738;8.316;2024-02-04T02:45:39;15.60;;;5.07;;
6185;SDS011;3126;52.738;8.316;2024-02-04T02:50:42;12.07;;;4.55;;
6185;SDS011;3126;52.738;8.316;2024-02-04T02:55:43;13.60;;;4.18;;
6185;SDS011;3126;52.738;8.316;2024-02-04T18:32:10;5.40;;;3.83;;
6185;SDS011;3126;52.738;8.316;2024-02-04T18:37:10;5.70;;;4.53;;
6185;SDS011;3126;52.738;8.316;2024-02-04T18:42:11;7.32;;;4.95;;
6185;SDS011;3126;52.738;8.316;2024-02-04T18:47:11;4.95;;;3.97;;
6185;SDS011;3126;52.738;8.316;2024-02-04T18:52:12;6.38;;;3.78;;
6185;SDS011;3126;52.738;8.316;2024-02-04T18:57:13;4.68;;;4.20;;
6185;SDS011;3126;52.738;8.316;2024-02-04T19:02:13;5.35;;;4.82;;
6185;SDS011;3126;52.738;8.316;2024-02-04T19:07:15;4.20;;;3.63;;
6185;SDS011;3126;52.738;8.316;2024-02-04T19:12:16;5.10;;;4.43;;
6185;SDS011;3126;52.738;8.316;2024-02-04T19:17:17;6.38;;;4.00;;
6185;SDS011;3126;52.738;8.316;2024-02-04T19:22:19;4.25;;;3.85;;
6185;SDS011;3126;52.738;8.316;2024-02-04T19:27:25;5.32;;;4.63;;
6185;SDS011;3126;52.738;8.316;2024-02-04T19:32:28;5.53;;;3.95;;
6185;SDS011;3126;52.738;8.316;2024-02-04T19:37:28;5.70;;;4.60;;
6185;SDS011;3126;52.738;8.316;2024-02-04T19:42:29;6.90;;;5.70;;
6185;SDS011;3126;52.738;8.316;2024-02-04T19:47:30;6.90;;;5.75;;
6185;SDS011;3126;52.738;8.316;2024-02-04T19:52:35;7.60;;;5.65;;
6185;SDS011;3126;52.738;8.316;2024-02-04T19:57:36;10.25;;;7.13;;
6185;SDS011;3126;52.738;8.316;2024-02-04T20:02:37;6.43;;;5.43;;
6185;SDS011;3126;52.738;8.316;2024-02-04T20:07:39;12.20;;;8.27;;
6185;SDS011;3126;52.738;8.316;2024-02-04T20:12:40;9.80;;;7.45;;
6185;SDS011;3126;52.738;8.316;2024-02-04T20:17:40;10.30;;;7.55;;
6185;SDS011;3126;52.738;8.316;2024-02-04T20:22:41;11.20;;;8.27;;
6185;SDS011;3126;52.738;8.316;2024-02-04T20:27:41;10.23;;;6.38;;
6185;SDS011;3126;52.738;8.316;2024-02-04T20:32:43;9.50;;;6.07;;
6185;SDS011;3126;52.738;8.316;2024-02-04T20:37:43;8.80;;;6.43;;
6185;SDS011;3126;52.738;8.316;2024-02-04T20:42:44;12.20;;;8.63;;
6185;SDS011;3126;52.738;8.316;2024-02-04T20:47:44;15.57;;;8.82;;
6185;SDS011;3126;52.738;8.316;2024-02-04T20:52:47;17.10;;;8.75;;
6185;SDS011;3126;52.738;8.316;2024-02-04T20:57:48;7.75;;;5.25;;
6185;SDS011;3126;52.738;8.316;2024-02-04T21:02:48;11.93;;;7.03;;
6185;SDS011;3126;52.738;8.316;2024-02-04T21:07:50;13.98;;;6.20;;
6185;SDS011;3126;52.738;8.316;2024-02-04T21:12:50;13.93;;;7.32;;
6185;SDS011;3126;52.738;8.316;2024-02-04T21:17:51;12.95;;;6.10;;
6185;SDS011;3126;52.738;8.316;2024-02-04T21:22:54;6.65;;;4.80;;
6185;SDS011;3126;52.738;8.316;2024-02-04T21:27:55;10.73;;;5.50;;
6185;SDS011;3126;52.738;8.316;2024-02-04T21:32:58;8.02;;;4.78;;
6185;SDS011;3126;52.738;8.316;2024-02-04T21:37:59;10.48;;;5.07;;
6185;SDS011;3126;52.738;8.316;2024-02-04T21:43:00;6.72;;;4.88;;
6185;SDS011;3126;52.738;8.316;2024-02-04T21:53:05;6.82;;;4.50;;
6185;SDS011;3126;52.738;8.316;2024-02-04T21:58:06;8.43;;;4.53;;
6185;SDS011;3126;52.738;8.316;2024-02-04T22:03:09;7.45;;;4.32;;
6185;SDS011;3126;52.738;8.316;2024-02-04T22:08:10;8.98;;;4.18;;
6185;SDS011;3126;52.738;8.316;2024-02-04T22:13:11;5.53;;;3.97;;
6185;SDS011;3126;52.738;8.316;2024-02-04T22:18:12;11.05;;;3.72;;
6185;SDS011;3126;52.738;8.316;2024-02-04T22:23:13;6.35;;;3.83;;
6185;SDS011;3126;52.738;8.316;2024-02-04T22:28:14;7.97;;;3.30;;
6185;SDS011;3126;52.738;8.316;2024-02-04T22:33:15;5.90;;;3.80;;
6185;SDS011;3126;52.738;8.316;2024-02-04T22:38:16;5.63;;;2.35;;
6185;SDS011;3126;52.738;8.316;2024-02-04T22:43:18;6.97;;;3.33;;
6185;SDS011;3126;52.738;8.316;2024-02-04T22:48:19;12.43;;;3.13;;
6185;SDS011;3126;52.738;8.316;2024-02-04T22:53:20;3.97;;;3.25;;
6185;SDS011;3126;52.738;8.316;2024-02-04T22:58:21;7.93;;;3.25;;
6185;SDS011;3126;52.738;8.316;2024-02-04T23:03:22;6.85;;;2.80;;
6185;SDS011;3126;52.738;8.316;2024-02-04T23:08:23;5.97;;;3.50;;
6185;SDS011;3126;52.738;8.316;2024-02-04T23:13:24;9.85;;;3.55;;
6185;SDS011;3126;52.738;8.316;2024-02-04T23:18:25;6.97;;;3.75;;
6185;SDS011;3126;52.738;8.316;2024-02-04T23:23:26;6.68;;;3.67;;
6185;SDS011;3126;52.738;8.316;2024-02-04T23:28:27;6.63;;;3.20;;
6185;SDS011;3126;52.738;8.316;2024-02-04T23:33:28;6.72;;;2.70;;
6185;SDS011;3126;52.738;8.316;2024-02-04T23:38:52;11.20;;;3.40;;
6185;SDS011;3126;52.738;8.316;2024-02-04T23:45:13;3.30;;;2.53;;
6185;SDS011;3126;52.738;8.316;2024-02-04T23:57:03;16.80;;;4.28;;
